Time;durP1;ratioP1;P1;durP2;ratioP2;P2;SDS_P1;SDS_P2;PMS_P1;PMS_P2;Temp;Humidity;BMP_temperature;BMP_pressure;BME280_temperature;BME280_humidity;BME280_pressure;Samples;Min_cycle;Max_cycle;Signal;HPM_P1;HPM_P2
2023/09/19 00:00:23;;;;;;;2.03;1.57;;;14.40;99.90;;;;;;2062994;28;20726;-80
2023/09/19 00:01:24;;;;;;;2.13;1.40;;;14.40;99.90;;;;;;2063445;28;20234;-81
2023/09/19 00:02:24;;;;;;;2.20;1.53;;;14.40;99.90;;;;;;2063274;28;20257;-81
2023/09/19 00:03:25;;;;;;;1.70;1.50;;;14.40;99.90;;;;;;2063231;28;20696;-81
2023/09/19 00:04:28;;;;;;;3.73;1.60;;;14.50;99.90;;;;;;2071901;28;20233;-81
2023/09/19 00:05:34;;;;;;;2.43;1.60;;;14.50;99.90;;;;;;2060769;28;20234;-80
2023/09/19 00:06:38;;;;;;;1.70;1.40;;;14.40;99.90;;;;;;2056316;28;21025;-81
2023/09/19 00:07:40;;;;;;;1.70;1.58;;;14.40;99.90;;;;;;2057941;28;20243;-81
2023/09/19 00:08:44;;;;;;;2.47;1.60;;;14.40;99.90;;;;;;2064823;28;20315;-81
2023/09/19 00:09:44;;;;;;;2.60;1.50;;;14.30;99.90;;;;;;2056691;28;20500;-81
2023/09/19 00:10:45;;;;;;;2.07;1.50;;;14.20;99.90;;;;;;2064854;28;20508;-80
2023/09/19 00:11:49;;;;;;;3.63;1.70;;;14.10;99.90;;;;;;2056730;28;20258;-81
2023/09/19 00:12:56;;;;;;;1.60;1.50;;;14.00;99.90;;;;;;2057489;28;20226;-80
2023/09/19 00:13:59;;;;;;;1.87;1.60;;;14.00;99.90;;;;;;2072287;28;20494;-81
2023/09/19 00:15:00;;;;;;;1.70;1.43;;;14.10;99.90;;;;;;2069347;28;20552;-80
2023/09/19 00:16:08;;;;;;;1.70;1.50;;;14.10;99.90;;;;;;2073542;28;20866;-81
2023/09/19 00:17:09;;;;;;;2.38;1.55;;;14.10;99.90;;;;;;2063399;28;20292;-81
2023/09/19 00:18:10;;;;;;;1.75;1.63;;;14.10;99.90;;;;;;2064659;28;20668;-81
2023/09/19 00:19:11;;;;;;;1.80;1.40;;;14.10;99.90;;;;;;2072404;28;20210;-81
2023/09/19 00:20:12;;;;;;;2.70;1.40;;;14.10;99.90;;;;;;2072516;28;20204;-82
2023/09/19 00:21:13;;;;;;;1.93;1.73;;;14.00;99.90;;;;;;2063695;28;20515;-80
2023/09/19 00:22:15;;;;;;;2.47;1.77;;;14.00;99.90;;;;;;2065354;28;20883;-82
2023/09/19 00:23:16;;;;;;;2.10;1.40;;;14.00;99.90;;;;;;2062164;28;20270;-81
2023/09/19 00:24:18;;;;;;;2.47;1.43;;;14.10;99.90;;;;;;2066186;28;20420;-81
2023/09/19 00:25:20;;;;;;;1.87;1.60;;;14.10;99.90;;;;;;2066054;28;20182;-81
2023/09/19 00:26:21;;;;;;;2.50;1.60;;;14.00;99.90;;;;;;2065797;28;20487;-81
2023/09/19 00:27:22;;;;;;;4.13;1.20;;;14.10;99.90;;;;;;2075277;28;20455;-80
2023/09/19 00:28:23;;;;;;;3.77;1.50;;;14.10;99.90;;;;;;2067420;28;20293;-79
2023/09/19 00:29:25;;;;;;;3.33;1.50;;;14.10;99.90;;;;;;2055494;28;20545;-81
2023/09/19 00:30:26;;;;;;;1.70;1.50;;;14.00;99.90;;;;;;2049035;28;20692;-80
2023/09/19 00:31:27;;;;;;;2.43;1.60;;;14.10;99.90;;;;;;2056043;28;20465;-81
2023/09/19 00:32:31;;;;;;;3.13;1.43;;;14.00;99.90;;;;;;2064046;28;20769;-80
2023/09/19 00:33:32;;;;;;;1.97;1.40;;;14.10;99.90;;;;;;2049582;28;20251;-82
2023/09/19 00:34:34;;;;;;;3.80;1.80;;;14.20;99.90;;;;;;2055709;28;20523;-81
2023/09/19 00:35:36;;;;;;;3.27;2.30;;;14.20;99.90;;;;;;2056564;28;20239;-81
2023/09/19 00:36:39;;;;;;;1.73;1.60;;;14.30;99.90;;;;;;2064169;28;20479;-80
2023/09/19 00:37:40;;;;;;;2.57;1.73;;;14.40;99.90;;;;;;2048936;28;20477;-80
2023/09/19 00:38:40;;;;;;;2.80;1.60;;;14.40;99.90;;;;;;2056104;28;20534;-81
2023/09/19 00:39:41;;;;;;;2.70;1.40;;;14.50;99.90;;;;;;2071696;28;20348;-82
2023/09/19 00:40:46;;;;;;;2.60;1.87;;;14.40;99.90;;;;;;2061100;28;20234;-80
2023/09/19 00:41:47;;;;;;;1.60;1.50;;;14.60;99.90;;;;;;2064363;28;20238;-81
2023/09/19 00:42:49;;;;;;;1.77;1.40;;;14.60;99.90;;;;;;2064266;28;20483;-81
2023/09/19 00:43:50;;;;;;;1.98;1.70;;;14.70;99.90;;;;;;2064490;28;20491;-80
2023/09/19 00:44:52;;;;;;;2.00;1.40;;;14.50;99.90;;;;;;2055974;28;20241;-81
2023/09/19 00:45:54;;;;;;;2.30;1.40;;;14.50;99.90;;;;;;2056491;28;20910;-81
2023/09/19 00:46:54;;;;;;;3.07;1.67;;;14.40;99.90;;;;;;2070068;28;20471;-81
2023/09/19 00:47:56;;;;;;;2.30;1.70;;;14.30;99.90;;;;;;2072061;28;20498;-82
2023/09/19 00:48:57;;;;;;;1.67;1.50;;;14.30;99.90;;;;;;2072393;28;20253;-81
2023/09/19 00:49:58;;;;;;;1.67;1.47;;;14.30;99.90;;;;;;2072660;28;20474;-80
2023/09/19 00:51:04;;;;;;;3.60;1.70;;;14.40;99.90;;;;;;2072538;28;20253;-82
2023/09/19 00:52:05;;;;;;;1.90;1.50;;;14.40;99.90;;;;;;2063146;28;20464;-81
2023/09/19 00:53:07;;;;;;;2.83;1.40;;;14.40;99.90;;;;;;2064788;28;20416;-81
2023/09/19 00:54:08;;;;;;;2.40;1.80;;;14.40;99.90;;;;;;2072987;28;20797;-80
2023/09/19 00:55:11;;;;;;;2.50;1.73;;;14.50;99.90;;;;;;2072130;28;20486;-81
2023/09/19 00:56:12;;;;;;;2.33;1.60;;;14.40;99.90;;;;;;2068501;28;20427;-81
2023/09/19 00:57:15;;;;;;;2.35;1.55;;;14.40;99.90;;;;;;2072061;28;20182;-81
2023/09/19 00:58:17;;;;;;;1.67;1.55;;;14.20;99.90;;;;;;2072296;28;20275;-81
2023/09/19 00:59:18;;;;;;;1.57;1.47;;;14.20;99.90;;;;;;2071496;28;20245;-81
2023/09/19 01:00:20;;;;;;;3.20;1.60;;;14.20;99.90;;;;;;2064153;28;20521;-81
2023/09/19 01:01:21;;;;;;;2.37;1.67;;;14.30;99.90;;;;;;2071833;28;20620;-80
2023/09/19 01:02:21;;;;;;;2.08;1.60;;;14.30;99.90;;;;;;2072232;28;20438;-82
2023/09/19 01:03:22;;;;;;;3.27;1.90;;;14.40;99.90;;;;;;2071475;28;20225;-80
2023/09/19 01:04:23;;;;;;;1.93;1.73;;;14.40;99.90;;;;;;2063689;28;20317;-81
2023/09/19 01:05:25;;;;;;;3.07;2.10;;;14.30;99.90;;;;;;2071322;28;20558;-81
2023/09/19 01:06:26;;;;;;;2.70;1.60;;;14.30;99.90;;;;;;2080048;28;20232;-81
2023/09/19 01:07:30;;;;;;;2.03;1.60;;;14.40;99.90;;;;;;2071514;28;20833;-81
2023/09/19 01:08:31;;;;;;;1.70;1.60;;;14.30;99.90;;;;;;2069458;28;20270;-81
2023/09/19 01:09:32;;;;;;;2.00;1.53;;;14.30;99.90;;;;;;2071405;28;20466;-82
2023/09/19 01:10:33;;;;;;;2.57;1.70;;;14.30;99.90;;;;;;2063870;28;21008;-81
2023/09/19 01:11:40;;;;;;;2.58;1.85;;;14.20;99.90;;;;;;2062831;28;20238;-81
2023/09/19 01:12:55;;;;;;;1.55;1.40;;;14.20;99.90;;;;;;2063507;28;20667;-82
2023/09/19 01:14:18;;;;;;;2.72;1.60;;;14.20;99.90;;;;;;2063616;28;20230;-82
2023/09/19 01:15:43;;;;;;;1.77;1.40;;;14.20;99.90;;;;;;2068659;28;20708;-82
2023/09/19 01:16:55;;;;;;;2.58;1.40;;;14.20;99.90;;;;;;2065888;28;21174;-80
2023/09/19 01:18:21;;;;;;;2.87;1.30;;;14.10;99.90;;;;;;2055935;28;20613;-81
2023/09/19 01:19:54;;;;;;;1.92;1.30;;;14.10;99.90;;;;;;2065956;28;20475;-79
2023/09/19 01:21:19;;;;;;;2.75;1.60;;;14.10;99.90;;;;;;2075205;28;20259;-80
2023/09/19 01:22:37;;;;;;;1.60;1.50;;;14.10;99.90;;;;;;2075342;28;20232;-80
2023/09/19 01:24:05;;;;;;;1.77;1.53;;;14.20;99.90;;;;;;2070057;28;20495;-80
2023/09/19 01:25:48;;;;;;;1.38;1.27;;;14.20;99.90;;;;;;2067928;28;20478;-80
2023/09/19 01:27:04;;;;;;;1.90;1.45;;;14.20;99.90;;;;;;2071657;28;20260;-81
2023/09/19 01:28:26;;;;;;;1.33;1.23;;;14.20;99.90;;;;;;2067487;28;20308;-82
2023/09/19 01:29:43;;;;;;;2.13;1.60;;;14.30;99.90;;;;;;2070960;28;20800;-80
2023/09/19 01:30:46;;;;;;;1.73;1.50;;;14.30;99.90;;;;;;2071343;28;20240;-81
2023/09/19 01:31:49;;;;;;;3.80;1.50;;;14.20;99.90;;;;;;2063731;28;20574;-81
2023/09/19 01:32:52;;;;;;;2.05;1.52;;;14.30;99.90;;;;;;2063697;28;20226;-81
2023/09/19 01:34:01;;;;;;;2.13;1.40;;;14.40;99.90;;;;;;2070984;28;20813;-81
2023/09/19 01:35:04;;;;;;;2.70;1.38;;;14.40;99.90;;;;;;2067392;28;20236;-81
2023/09/19 01:36:05;;;;;;;3.57;1.67;;;14.30;99.90;;;;;;2071656;28;20247;-82
2023/09/19 01:37:05;;;;;;;2.42;1.50;;;14.20;99.90;;;;;;2070979;28;20443;-80
2023/09/19 01:38:09;;;;;;;1.50;1.27;;;14.30;99.90;;;;;;2063121;28;20198;-81
2023/09/19 01:39:13;;;;;;;2.10;1.70;;;14.20;99.90;;;;;;2061515;28;20282;-81
2023/09/19 01:40:17;;;;;;;2.30;1.50;;;14.20;99.90;;;;;;2058919;28;20874;-81
2023/09/19 01:41:26;;;;;;;3.47;1.50;;;14.30;99.90;;;;;;2068357;28;20453;-82
2023/09/19 01:42:44;;;;;;;2.70;1.57;;;14.30;99.90;;;;;;2071282;28;20235;-82
2023/09/19 01:43:47;;;;;;;1.50;1.40;;;14.40;99.90;;;;;;2061142;28;21067;-81
2023/09/19 01:44:47;;;;;;;1.80;1.37;;;14.40;99.90;;;;;;2063302;28;20878;-82
2023/09/19 01:45:57;;;;;;;1.53;1.30;;;14.40;99.90;;;;;;2076460;28;20462;-81
2023/09/19 01:47:05;;;;;;;2.60;1.40;;;14.40;99.90;;;;;;2075571;28;20229;-82
2023/09/19 01:48:25;;;;;;;2.78;1.50;;;14.40;99.90;;;;;;2067348;28;20513;-81
2023/09/19 01:49:46;;;;;;;1.50;1.40;;;14.50;99.90;;;;;;2063215;28;20314;-80
2023/09/19 01:50:55;;;;;;;2.27;1.60;;;14.40;99.90;;;;;;2065661;28;20471;-82
2023/09/19 01:52:16;;;;;;;1.60;1.47;;;14.50;99.90;;;;;;2065605;28;20542;-82
2023/09/19 01:53:28;;;;;;;1.50;1.30;;;14.50;99.90;;;;;;2069939;28;20488;-82
2023/09/19 01:54:33;;;;;;;2.33;1.30;;;14.40;99.90;;;;;;2067505;28;20474;-82
2023/09/19 01:55:42;;;;;;;1.50;1.40;;;14.40;99.90;;;;;;2069983;28;20467;-81
2023/09/19 01:57:03;;;;;;;2.22;1.30;;;14.30;99.90;;;;;;2071655;28;20459;-82
2023/09/19 01:58:22;;;;;;;1.40;1.30;;;14.40;99.90;;;;;;2069395;28;20252;-82
2023/09/19 01:59:28;;;;;;;1.60;1.40;;;14.50;99.90;;;;;;2069239;28;21077;-82
2023/09/19 02:00:32;;;;;;;1.80;1.23;;;14.60;99.90;;;;;;2071966;28;20475;-82
2023/09/19 02:01:34;;;;;;;1.43;1.33;;;14.60;99.90;;;;;;2068038;28;20463;-82
2023/09/19 02:02:41;;;;;;;2.30;1.30;;;14.50;99.90;;;;;;2068313;28;20466;-82
2023/09/19 02:03:44;;;;;;;3.42;1.45;;;14.60;99.90;;;;;;2077445;28;20934;-82
2023/09/19 02:04:44;;;;;;;3.33;1.30;;;14.50;99.90;;;;;;2071655;28;20233;-82
2023/09/19 02:05:53;;;;;;;1.40;1.30;;;14.50;99.90;;;;;;2071553;28;20462;-82
2023/09/19 02:06:54;;;;;;;1.70;1.30;;;14.40;99.90;;;;;;2064305;28;20237;-81
2023/09/19 02:07:56;;;;;;;1.47;1.37;;;14.40;99.90;;;;;;2077932;28;20454;-81
2023/09/19 02:08:57;;;;;;;2.23;1.47;;;14.30;99.90;;;;;;2082847;28;20248;-81
2023/09/19 02:10:00;;;;;;;2.13;1.40;;;14.40;99.90;;;;;;2081547;28;20478;-81
2023/09/19 02:11:01;;;;;;;2.17;1.40;;;14.40;99.90;;;;;;2059841;28;20471;-80
2023/09/19 02:12:03;;;;;;;2.30;1.60;;;14.30;99.90;;;;;;2055940;28;21041;-81
2023/09/19 02:13:04;;;;;;;3.13;1.50;;;14.20;99.90;;;;;;2066064;28;20230;-81
2023/09/19 02:14:08;;;;;;;3.60;1.33;;;14.20;99.90;;;;;;2066138;28;21038;-81
2023/09/19 02:15:09;;;;;;;2.70;1.43;;;14.30;99.90;;;;;;2071014;28;20186;-81
2023/09/19 02:16:10;;;;;;;1.63;1.40;;;14.30;99.90;;;;;;2071115;28;20435;-82
2023/09/19 02:17:12;;;;;;;4.40;1.20;;;14.20;99.90;;;;;;2071754;28;20198;-81
2023/09/19 02:18:14;;;;;;;2.10;1.47;;;14.20;99.90;;;;;;2078960;28;20419;-81
2023/09/19 02:19:14;;;;;;;1.73;1.20;;;14.10;99.90;;;;;;2071663;28;20471;-82
2023/09/19 02:20:16;;;;;;;2.30;1.37;;;14.00;99.90;;;;;;2071686;28;20204;-81
2023/09/19 02:21:18;;;;;;;2.80;1.20;;;14.00;99.90;;;;;;2071635;28;20627;-82
2023/09/19 02:22:18;;;;;;;1.90;1.30;;;14.10;99.90;;;;;;2062931;28;20538;-80
2023/09/19 02:23:19;;;;;;;2.27;1.50;;;14.10;99.90;;;;;;2071173;28;20427;-82
2023/09/19 02:24:20;;;;;;;2.30;1.30;;;14.20;99.90;;;;;;2079921;28;20181;-81
2023/09/19 02:25:20;;;;;;;1.73;1.40;;;14.10;99.90;;;;;;2072046;28;20268;-81
2023/09/19 02:26:21;;;;;;;2.03;1.30;;;14.10;99.90;;;;;;2072555;28;22412;-82
2023/09/19 02:27:22;;;;;;;2.03;1.20;;;14.10;99.90;;;;;;2072244;28;20229;-82
2023/09/19 02:28:22;;;;;;;1.63;1.20;;;14.10;99.90;;;;;;2063236;28;20906;-81
2023/09/19 02:29:24;;;;;;;1.63;1.27;;;14.00;99.90;;;;;;2061771;28;20352;-81
2023/09/19 02:30:25;;;;;;;2.50;1.40;;;14.00;99.90;;;;;;2071055;28;20984;-81
2023/09/19 02:31:29;;;;;;;2.43;1.27;;;14.00;99.90;;;;;;2070831;28;20566;-80
2023/09/19 02:32:31;;;;;;;1.60;1.38;;;14.00;99.90;;;;;;2070515;28;21019;-80
2023/09/19 02:33:32;;;;;;;3.13;1.40;;;14.00;99.90;;;;;;2071322;28;20229;-80
2023/09/19 02:34:36;;;;;;;2.47;1.40;;;13.90;99.90;;;;;;2070625;28;20514;-81
2023/09/19 02:35:36;;;;;;;2.07;1.23;;;13.90;99.90;;;;;;2070475;28;20505;-80
2023/09/19 02:36:37;;;;;;;1.33;1.10;;;13.90;99.90;;;;;;2070724;28;20520;-80
2023/09/19 02:37:38;;;;;;;1.63;1.43;;;13.90;99.90;;;;;;2070214;28;20594;-81
2023/09/19 02:38:38;;;;;;;2.13;1.47;;;13.80;99.90;;;;;;2070022;28;20226;-81
2023/09/19 02:39:39;;;;;;;1.37;1.13;;;13.90;99.90;;;;;;2068531;28;20236;-81
2023/09/19 02:40:39;;;;;;;2.73;1.10;;;13.80;99.90;;;;;;2070802;28;20264;-80
2023/09/19 02:41:41;;;;;;;2.27;1.47;;;13.80;99.90;;;;;;2071635;28;20714;-80
2023/09/19 02:42:46;;;;;;;1.93;1.20;;;13.90;99.90;;;;;;2071289;28;20230;-81
2023/09/19 02:43:47;;;;;;;1.52;0.90;;;13.90;99.90;;;;;;2068604;28;20470;-81
2023/09/19 02:44:48;;;;;;;1.80;1.30;;;14.00;99.90;;;;;;2070920;28;20710;-82
2023/09/19 02:45:49;;;;;;;3.17;1.30;;;14.00;99.90;;;;;;2070826;28;20229;-80
2023/09/19 02:46:50;;;;;;;3.13;1.30;;;14.00;99.90;;;;;;2071283;28;20640;-81
2023/09/19 02:47:51;;;;;;;3.10;1.20;;;14.00;99.90;;;;;;2071298;28;20240;-81
2023/09/19 02:48:51;;;;;;;1.63;1.20;;;13.90;99.90;;;;;;2071463;28;20328;-81
2023/09/19 02:49:52;;;;;;;2.60;1.23;;;13.90;99.90;;;;;;2071269;28;20320;-80
2023/09/19 02:50:53;;;;;;;3.23;1.20;;;14.00;99.90;;;;;;2070665;28;20229;-80
2023/09/19 02:51:53;;;;;;;1.83;1.40;;;14.00;99.90;;;;;;2062751;28;20288;-80
2023/09/19 02:52:54;;;;;;;2.43;1.20;;;14.00;99.90;;;;;;2062321;28;20233;-81
2023/09/19 02:53:55;;;;;;;1.57;1.20;;;14.00;99.90;;;;;;2070845;28;20317;-81
2023/09/19 02:54:55;;;;;;;1.47;1.20;;;13.90;99.90;;;;;;2071140;28;20237;-81
2023/09/19 02:55:56;;;;;;;3.07;1.27;;;13.90;99.90;;;;;;2070115;28;20316;-81
2023/09/19 02:56:58;;;;;;;1.53;1.20;;;13.90;99.90;;;;;;2070564;28;20785;-81
2023/09/19 02:58:00;;;;;;;4.87;1.50;;;13.90;99.90;;;;;;2070861;28;20233;-81
2023/09/19 02:59:01;;;;;;;1.63;1.00;;;13.90;99.90;;;;;;2070452;28;20517;-82
2023/09/19 03:00:02;;;;;;;2.77;1.57;;;14.00;99.90;;;;;;2070188;28;20975;-81
2023/09/19 03:01:13;;;;;;;2.70;1.40;;;13.90;99.90;;;;;;2070134;28;20236;-81
2023/09/19 03:02:13;;;;;;;2.17;1.30;;;13.90;99.90;;;;;;2068306;28;20422;-81
2023/09/19 03:03:16;;;;;;;3.20;1.20;;;13.90;99.90;;;;;;2070950;28;20423;-81
2023/09/19 03:04:20;;;;;;;1.87;1.50;;;13.90;99.90;;;;;;2070478;28;20236;-81
2023/09/19 03:05:23;;;;;;;1.47;1.30;;;13.90;99.90;;;;;;2070376;28;20585;-81
2023/09/19 03:06:23;;;;;;;1.87;1.40;;;13.90;99.90;;;;;;2070457;28;20474;-80
2023/09/19 03:07:25;;;;;;;1.53;1.30;;;13.90;99.90;;;;;;2068965;28;20517;-81
2023/09/19 03:08:25;;;;;;;2.03;1.35;;;13.80;99.90;;;;;;2070954;28;20225;-81
2023/09/19 03:09:26;;;;;;;3.00;1.20;;;13.90;99.90;;;;;;2071299;28;20224;-81
2023/09/19 03:10:27;;;;;;;1.63;1.40;;;14.00;99.90;;;;;;2071320;28;20233;-81
2023/09/19 03:11:28;;;;;;;2.27;1.60;;;13.90;99.90;;;;;;2071000;28;20584;-82
2023/09/19 03:12:29;;;;;;;4.27;1.40;;;13.90;99.90;;;;;;2062778;28;20851;-81
2023/09/19 03:13:31;;;;;;;1.83;1.30;;;13.90;99.90;;;;;;2054489;28;20223;-82
2023/09/19 03:14:35;;;;;;;1.63;1.40;;;13.90;99.90;;;;;;2062214;28;20730;-82
2023/09/19 03:15:39;;;;;;;2.43;1.40;;;14.00;99.90;;;;;;2068369;28;20465;-82
2023/09/19 03:16:39;;;;;;;3.43;1.40;;;13.90;99.90;;;;;;2070765;28;20463;-81
2023/09/19 03:17:44;;;;;;;2.80;1.57;;;14.00;99.90;;;;;;2071069;28;20477;-82
2023/09/19 03:18:47;;;;;;;3.87;1.30;;;14.00;99.90;;;;;;2070238;28;20240;-82
2023/09/19 03:19:48;;;;;;;2.23;1.60;;;14.00;99.90;;;;;;2061740;28;20468;-82
2023/09/19 03:20:55;;;;;;;2.70;1.30;;;14.00;99.90;;;;;;2068009;28;20860;-82
2023/09/19 03:21:57;;;;;;;2.05;1.30;;;14.00;99.90;;;;;;2077381;28;20233;-82
2023/09/19 03:22:58;;;;;;;2.87;1.37;;;14.00;99.90;;;;;;2071601;28;20229;-82
2023/09/19 03:23:58;;;;;;;1.77;1.40;;;14.10;99.90;;;;;;2071171;28;20486;-81
2023/09/19 03:25:00;;;;;;;2.10;1.27;;;14.10;99.90;;;;;;2071014;28;20226;-81
2023/09/19 03:26:01;;;;;;;2.05;1.20;;;14.20;99.90;;;;;;2071634;28;20316;-82
2023/09/19 03:27:03;;;;;;;1.77;1.30;;;14.30;99.90;;;;;;2071087;28;20229;-82
2023/09/19 03:28:07;;;;;;;1.73;1.57;;;14.40;99.90;;;;;;2070062;28;20685;-81
2023/09/19 03:29:09;;;;;;;1.20;1.10;;;14.50;99.90;;;;;;2069968;28;20468;-80
2023/09/19 03:30:13;;;;;;;3.30;1.30;;;14.60;99.90;;;;;;2070536;28;20446;-80
2023/09/19 03:31:13;;;;;;;2.07;1.53;;;14.70;99.90;;;;;;2070603;28;20435;-80
2023/09/19 03:32:15;;;;;;;1.40;1.30;;;14.70;99.90;;;;;;2070910;28;20430;-80
2023/09/19 03:33:16;;;;;;;1.43;1.33;;;14.70;99.90;;;;;;2070433;28;20192;-80
2023/09/19 03:34:17;;;;;;;2.90;1.60;;;14.80;99.90;;;;;;2070331;28;20503;-81
2023/09/19 03:35:18;;;;;;;3.50;1.70;;;14.90;99.90;;;;;;2065432;28;20407;-80
2023/09/19 03:36:18;;;;;;;2.73;1.60;;;14.80;99.90;;;;;;2069350;28;20182;-80
2023/09/19 03:37:19;;;;;;;4.40;1.60;;;14.70;99.90;;;;;;2070492;28;20489;-80
2023/09/19 03:38:21;;;;;;;3.00;1.50;;;14.70;99.90;;;;;;2070476;28;20192;-81
2023/09/19 03:39:22;;;;;;;2.28;1.42;;;14.60;99.90;;;;;;2069787;28;20238;-80
2023/09/19 03:40:23;;;;;;;1.70;1.50;;;14.60;99.90;;;;;;2063312;28;20234;-80
2023/09/19 03:41:24;;;;;;;2.37;1.70;;;14.70;99.90;;;;;;2073487;28;20819;-79
2023/09/19 03:42:26;;;;;;;4.37;2.10;;;14.70;99.90;;;;;;2077079;28;20477;-79
2023/09/19 03:43:27;;;;;;;4.23;2.10;;;14.70;99.90;;;;;;2069049;28;20234;-80
2023/09/19 03:44:27;;;;;;;2.80;2.10;;;14.70;99.90;;;;;;2075259;28;20569;-81
2023/09/19 03:45:28;;;;;;;3.97;2.60;;;14.70;99.90;;;;;;2076282;28;20649;-82
2023/09/19 03:46:30;;;;;;;5.03;2.70;;;14.60;99.90;;;;;;2074363;28;20776;-82
2023/09/19 03:47:30;;;;;;;4.80;2.40;;;14.80;99.90;;;;;;2067469;28;20251;-82
2023/09/19 03:48:31;;;;;;;3.07;2.20;;;14.80;99.90;;;;;;2078265;28;20471;-80
2023/09/19 03:49:31;;;;;;;3.67;2.27;;;14.90;99.90;;;;;;2084636;28;20233;-81
2023/09/19 03:50:33;;;;;;;2.37;2.00;;;14.90;99.90;;;;;;2083893;28;20252;-80
2023/09/19 03:51:34;;;;;;;2.13;1.93;;;15.00;99.90;;;;;;2075974;28;20236;-80
2023/09/19 03:52:34;;;;;;;2.73;2.10;;;15.00;99.90;;;;;;2073435;28;20458;-80
2023/09/19 03:53:35;;;;;;;3.60;2.23;;;15.00;99.90;;;;;;2065430;28;20471;-80
2023/09/19 03:54:35;;;;;;;4.27;2.67;;;15.00;99.90;;;;;;2073315;28;20718;-79
2023/09/19 03:55:38;;;;;;;3.70;2.40;;;15.10;99.90;;;;;;2074128;28;20232;-81
2023/09/19 03:56:39;;;;;;;2.85;2.10;;;15.10;99.90;;;;;;2064367;28;20230;-80
2023/09/19 03:57:39;;;;;;;3.77;2.50;;;15.10;99.90;;;;;;2069710;28;20225;-80
2023/09/19 03:58:40;;;;;;;4.30;2.13;;;15.10;99.90;;;;;;2069114;28;20260;-80
2023/09/19 03:59:42;;;;;;;3.13;2.20;;;15.10;99.90;;;;;;2068680;28;20240;-80
2023/09/19 04:00:43;;;;;;;2.80;1.47;;;15.10;99.90;;;;;;2080599;28;20596;-80
2023/09/19 04:01:43;;;;;;;4.23;1.60;;;15.00;99.90;;;;;;2072973;28;20470;-81
2023/09/19 04:02:45;;;;;;;2.33;1.83;;;14.80;99.90;;;;;;2073215;28;20298;-80
2023/09/19 04:03:47;;;;;;;4.22;2.03;;;14.70;99.90;;;;;;2073804;28;20232;-81
2023/09/19 04:04:48;;;;;;;4.40;2.30;;;14.60;99.90;;;;;;2073595;28;20233;-80
2023/09/19 04:05:49;;;;;;;4.15;2.58;;;14.50;99.90;;;;;;2073615;28;20470;-81
2023/09/19 04:06:49;;;;;;;3.57;2.20;;;14.60;99.90;;;;;;2073832;28;20697;-81
2023/09/19 04:07:50;;;;;;;5.23;2.83;;;14.50;99.90;;;;;;2072494;28;20264;-80
2023/09/19 04:08:51;;;;;;;5.23;2.40;;;14.60;99.90;;;;;;2072799;28;20428;-80
2023/09/19 04:09:54;;;;;;;3.07;1.80;;;14.50;99.90;;;;;;2072264;28;20237;-81
2023/09/19 04:10:56;;;;;;;4.50;1.90;;;14.40;99.90;;;;;;2070709;28;20236;-81
2023/09/19 04:11:57;;;;;;;2.22;1.35;;;14.30;99.90;;;;;;2073605;28;20470;-81
2023/09/19 04:12:58;;;;;;;2.83;2.10;;;14.30;99.90;;;;;;2073805;28;20260;-81
2023/09/19 04:13:58;;;;;;;4.80;2.33;;;14.30;99.90;;;;;;2073087;28;20268;-81
2023/09/19 04:14:59;;;;;;;2.73;1.80;;;14.30;99.90;;;;;;2064169;28;20273;-81
2023/09/19 04:15:59;;;;;;;2.40;2.00;;;14.40;99.90;;;;;;2072133;28;20225;-80
2023/09/19 04:17:00;;;;;;;2.17;1.80;;;14.40;99.90;;;;;;2073059;28;20584;-79
2023/09/19 04:18:03;;;;;;;6.03;2.10;;;14.30;99.90;;;;;;2072808;28;20295;-81
2023/09/19 04:19:03;;;;;;;2.33;1.70;;;14.30;99.90;;;;;;2071240;28;20243;-80
2023/09/19 04:20:06;;;;;;;2.23;1.90;;;14.30;99.90;;;;;;2064616;28;20467;-80
2023/09/19 04:21:07;;;;;;;3.83;1.80;;;14.20;99.90;;;;;;2065755;28;20190;-81
2023/09/19 04:22:09;;;;;;;3.80;2.07;;;14.20;99.90;;;;;;2072130;28;20426;-80
2023/09/19 04:23:09;;;;;;;2.87;1.97;;;14.20;99.90;;;;;;2079991;28;20212;-81
2023/09/19 04:24:10;;;;;;;3.47;2.03;;;14.30;99.90;;;;;;2081504;28;20414;-81
2023/09/19 04:25:10;;;;;;;3.77;2.07;;;14.30;99.90;;;;;;2081583;28;20193;-80
2023/09/19 04:26:12;;;;;;;5.27;2.50;;;14.40;99.90;;;;;;2081237;28;20200;-81
2023/09/19 04:27:14;;;;;;;3.10;1.83;;;14.50;99.90;;;;;;2074488;28;20634;-81
2023/09/19 04:28:15;;;;;;;4.23;1.83;;;14.60;99.90;;;;;;2074544;28;20860;-80
2023/09/19 04:29:16;;;;;;;2.73;1.70;;;14.60;99.90;;;;;;2072807;28;20430;-81
2023/09/19 04:30:16;;;;;;;2.40;1.70;;;14.70;99.90;;;;;;2072846;28;20229;-81
2023/09/19 04:31:18;;;;;;;1.90;1.67;;;14.70;99.90;;;;;;2064582;28;20625;-81
2023/09/19 04:32:19;;;;;;;4.03;1.53;;;14.70;99.90;;;;;;2064813;28;20190;-81
2023/09/19 04:33:19;;;;;;;2.73;1.50;;;14.50;99.90;;;;;;2066137;28;20452;-82
2023/09/19 04:34:20;;;;;;;1.10;1.00;;;14.60;99.90;;;;;;2073135;28;20192;-82
2023/09/19 04:35:20;;;;;;;1.30;1.20;;;14.40;99.90;;;;;;2081640;28;20271;-82
2023/09/19 04:36:22;;;;;;;1.43;1.10;;;14.30;99.90;;;;;;2080937;28;20185;-82
2023/09/19 04:37:23;;;;;;;1.60;1.10;;;14.30;99.90;;;;;;2073326;28;20308;-83
2023/09/19 04:38:24;;;;;;;1.90;1.20;;;14.20;99.90;;;;;;2072868;28;20578;-82
2023/09/19 04:39:25;;;;;;;1.73;1.23;;;14.20;99.90;;;;;;2071171;28;20287;-81
2023/09/19 04:40:29;;;;;;;1.03;1.00;;;14.30;99.90;;;;;;2072559;28;20237;-82
2023/09/19 04:41:30;;;;;;;1.05;0.95;;;14.20;99.90;;;;;;2072844;28;20462;-82
2023/09/19 04:42:30;;;;;;;2.30;1.03;;;14.20;99.90;;;;;;2072546;28;20316;-82
2023/09/19 04:43:31;;;;;;;1.17;1.07;;;14.20;99.90;;;;;;2069607;28;20240;-82
2023/09/19 04:44:31;;;;;;;3.73;1.30;;;14.10;99.90;;;;;;2069577;28;20276;-81
2023/09/19 04:45:32;;;;;;;1.10;1.00;;;14.10;99.90;;;;;;2070753;28;20229;-82
2023/09/19 04:46:33;;;;;;;2.37;1.07;;;14.10;99.90;;;;;;2072476;28;20316;-81
2023/09/19 04:47:33;;;;;;;1.10;1.00;;;14.10;99.90;;;;;;2063470;28;20229;-81
2023/09/19 04:48:34;;;;;;;1.97;1.20;;;14.10;99.90;;;;;;2073108;28;20603;-81
2023/09/19 04:49:35;;;;;;;1.30;1.20;;;14.10;99.90;;;;;;2073006;28;20268;-82
2023/09/19 04:50:37;;;;;;;1.97;1.00;;;14.00;99.90;;;;;;2064558;28;20237;-82
2023/09/19 04:51:37;;;;;;;1.00;0.90;;;14.00;99.90;;;;;;2065376;28;20256;-82
2023/09/19 04:52:42;;;;;;;1.33;1.03;;;13.90;99.90;;;;;;2063495;28;20467;-81
2023/09/19 04:53:43;;;;;;;1.23;1.10;;;13.90;99.90;;;;;;2072411;28;20236;-81
2023/09/19 04:54:44;;;;;;;1.77;1.10;;;13.90;99.90;;;;;;2076954;28;20534;-81
2023/09/19 04:55:46;;;;;;;1.67;1.20;;;13.80;99.90;;;;;;2076934;28;20470;-80
2023/09/19 04:56:46;;;;;;;1.70;1.17;;;13.80;99.90;;;;;;2068631;28;20549;-81
2023/09/19 04:57:52;;;;;;;2.00;1.20;;;13.70;99.90;;;;;;2075772;28;20225;-81
2023/09/19 04:58:53;;;;;;;1.73;1.20;;;13.70;99.90;;;;;;2072922;28;20824;-82
2023/09/19 04:59:54;;;;;;;2.97;1.40;;;13.70;99.90;;;;;;2073316;28;20244;-81
2023/09/19 05:00:54;;;;;;;2.07;1.20;;;13.70;99.90;;;;;;2072209;28;20238;-81
2023/09/19 05:01:56;;;;;;;1.53;1.23;;;13.80;99.90;;;;;;2071724;28;20233;-81
2023/09/19 05:02:57;;;;;;;1.73;1.40;;;13.80;99.90;;;;;;2072259;28;20487;-81
2023/09/19 05:03:58;;;;;;;1.87;1.30;;;13.80;99.90;;;;;;2072127;28;20225;-82
2023/09/19 05:04:59;;;;;;;2.37;1.20;;;13.80;99.90;;;;;;2063969;28;20238;-81
2023/09/19 05:05:59;;;;;;;1.52;1.20;;;13.90;99.90;;;;;;2071978;28;20232;-82
2023/09/19 05:07:03;;;;;;;1.97;1.60;;;13.90;99.90;;;;;;2072908;28;20319;-81
2023/09/19 05:08:05;;;;;;;2.10;1.20;;;13.90;99.90;;;;;;2071757;28;20234;-82
2023/09/19 05:09:05;;;;;;;1.70;1.33;;;14.00;99.90;;;;;;2071068;28;20428;-81
2023/09/19 05:10:07;;;;;;;1.10;1.00;;;14.00;99.90;;;;;;2063113;28;20459;-81
2023/09/19 05:11:08;;;;;;;2.00;1.10;;;14.00;99.90;;;;;;2071063;28;20201;-80
2023/09/19 05:12:10;;;;;;;2.67;1.50;;;14.10;99.90;;;;;;2071685;28;20512;-81
2023/09/19 05:13:12;;;;;;;1.50;1.30;;;14.10;99.90;;;;;;2071663;28;20498;-81
2023/09/19 05:14:12;;;;;;;1.30;1.20;;;14.20;99.90;;;;;;2071987;28;20489;-82
2023/09/19 05:15:17;;;;;;;3.27;1.40;;;14.30;99.90;;;;;;2072053;28;20516;-82
2023/09/19 05:16:17;;;;;;;2.13;1.23;;;14.40;99.90;;;;;;2071248;28;20239;-81
2023/09/19 05:17:19;;;;;;;1.67;1.20;;;14.40;99.90;;;;;;2065460;28;20436;-82
2023/09/19 05:18:19;;;;;;;1.87;1.57;;;14.50;99.90;;;;;;2081966;28;20170;-81
2023/09/19 05:19:20;;;;;;;1.53;1.40;;;14.60;99.90;;;;;;2081755;28;20475;-81
2023/09/19 05:20:29;;;;;;;2.03;1.17;;;14.60;99.90;;;;;;2074844;28;20220;-81
2023/09/19 05:21:30;;;;;;;3.10;1.20;;;14.60;99.90;;;;;;2071215;28;20233;-81
2023/09/19 05:22:32;;;;;;;1.30;1.20;;;14.60;99.90;;;;;;2071837;28;20550;-81
2023/09/19 05:23:33;;;;;;;1.17;1.03;;;14.60;99.90;;;;;;2063865;28;20550;-81
2023/09/19 05:24:34;;;;;;;1.40;1.30;;;14.70;99.90;;;;;;2061901;28;20551;-81
2023/09/19 05:25:39;;;;;;;2.07;1.47;;;14.70;99.90;;;;;;2072123;28;20229;-82
2023/09/19 05:26:40;;;;;;;1.70;1.57;;;14.70;99.90;;;;;;2072646;28;20237;-80
2023/09/19 05:27:42;;;;;;;1.53;1.30;;;14.80;99.90;;;;;;2063584;28;20483;-82
2023/09/19 05:28:43;;;;;;;1.77;1.50;;;14.90;99.90;;;;;;2064641;28;20811;-82